Time;durP1;ratioP1;P1;durP2;ratioP2;P2;SDS_P1;SDS_P2;PMS_P1;PMS_P2;Temp;Humidity;BMP_temperature;BMP_pressure;BME280_temperature;BME280_humidity;BME280_pressure;Samples;Min_cycle;Max_cycle;Signal;HPM_P1;HPM_P2
2022/04/25 00:00:20;;;;;;;10.37;9.00;;;12.40;99.90;;;;;;7384651;19;20155;-78
2022/04/25 00:02:45;;;;;;;10.30;8.23;;;12.50;99.90;;;;;;7388576;19;20138;-77
2022/04/25 00:05:11;;;;;;;9.93;8.03;;;12.40;99.90;;;;;;7385061;19;20135;-79
2022/04/25 00:07:37;;;;;;;9.80;8.20;;;12.20;99.90;;;;;;7385705;19;20571;-79
2022/04/25 00:10:03;;;;;;;10.50;7.57;;;12.40;99.90;;;;;;7385605;19;20130;-79
2022/04/25 00:12:29;;;;;;;10.77;8.17;;;12.10;99.90;;;;;;7393254;19;20143;-77
2022/04/25 00:14:55;;;;;;;9.80;8.03;;;12.10;99.90;;;;;;7390547;19;20131;-77
2022/04/25 00:17:21;;;;;;;9.77;7.73;;;12.00;99.90;;;;;;7386420;19;20146;-78
2022/04/25 00:19:47;;;;;;;9.13;7.83;;;12.00;99.90;;;;;;7383308;19;20142;-78
2022/04/25 00:22:16;;;;;;;9.93;8.57;;;12.10;99.90;;;;;;7388493;19;20139;-76
2022/04/25 00:24:44;;;;;;;10.30;8.40;;;12.20;99.90;;;;;;7386570;19;20151;-78
2022/04/25 00:27:11;;;;;;;10.47;8.63;;;12.30;99.90;;;;;;7385424;19;20487;-77
2022/04/25 00:29:37;;;;;;;10.35;8.35;;;12.00;99.90;;;;;;7383854;19;20606;-77
2022/04/25 00:32:03;;;;;;;9.67;7.77;;;12.00;99.90;;;;;;7387304;19;20139;-77
2022/04/25 00:34:29;;;;;;;10.67;8.53;;;12.20;99.90;;;;;;7391346;19;20179;-79
2022/04/25 00:36:54;;;;;;;10.27;8.67;;;12.20;99.90;;;;;;7394867;19;20150;-80
2022/04/25 00:39:20;;;;;;;11.40;8.93;;;12.40;99.90;;;;;;7384963;19;20146;-76
2022/04/25 00:41:46;;;;;;;9.87;8.17;;;12.40;99.90;;;;;;7385018;19;20186;-80
2022/04/25 00:44:12;;;;;;;12.53;9.00;;;12.40;99.90;;;;;;7384727;19;20143;-77
2022/04/25 00:46:40;;;;;;;11.03;9.10;;;12.40;99.90;;;;;;7384583;19;20135;-76
2022/04/25 00:49:06;;;;;;;9.87;8.77;;;12.40;99.90;;;;;;7387426;19;20170;-77
2022/04/25 00:51:31;;;;;;;12.50;9.83;;;12.40;99.90;;;;;;7386277;19;20146;-79
2022/04/25 00:53:58;;;;;;;11.70;9.93;;;12.40;99.90;;;;;;7387204;19;20127;-78
2022/04/25 00:56:26;;;;;;;12.57;10.43;;;12.10;99.90;;;;;;7395772;19;20807;-78
2022/04/25 00:58:52;;;;;;;13.10;10.73;;;12.30;99.90;;;;;;7388074;19;20127;-77
2022/04/25 01:01:18;;;;;;;11.47;9.97;;;12.20;99.90;;;;;;7386411;19;20145;-77
2022/04/25 01:03:44;;;;;;;12.23;10.20;;;12.00;99.90;;;;;;7394685;19;20434;-77
2022/04/25 01:06:11;;;;;;;12.47;10.10;;;12.00;99.90;;;;;;7393296;19;20139;-76
2022/04/25 01:08:37;;;;;;;11.30;10.03;;;12.00;99.90;;;;;;7397000;19;20136;-76
2022/04/25 01:11:04;;;;;;;12.20;10.37;;;12.00;99.90;;;;;;7395793;19;20147;-79
2022/04/25 01:13:31;;;;;;;12.53;10.40;;;12.00;99.90;;;;;;7393492;19;20154;-80
2022/04/25 01:15:57;;;;;;;12.90;10.80;;;12.10;99.90;;;;;;7404998;19;20513;-77
2022/04/25 01:18:23;;;;;;;14.73;10.60;;;12.10;99.90;;;;;;7398651;19;20146;-80
2022/04/25 01:20:55;;;;;;;14.40;10.60;;;12.10;99.90;;;;;;7390307;19;20538;-80
2022/04/25 01:28:54;;;;;;;14.57;11.63;;;12.00;99.90;;;;;;7391975;19;21041;-78
2022/04/25 01:31:20;;;;;;;15.27;11.23;;;12.10;99.90;;;;;;7393156;19;20131;-76
2022/04/25 01:33:46;;;;;;;14.80;10.87;;;12.00;99.90;;;;;;7392706;19;20142;-79
2022/04/25 01:36:12;;;;;;;15.13;11.27;;;12.00;99.90;;;;;;7396888;19;20233;-76
2022/04/25 01:38:38;;;;;;;13.40;11.17;;;12.00;99.90;;;;;;7406417;19;20195;-79
2022/04/25 01:41:04;;;;;;;13.83;10.87;;;12.10;99.90;;;;;;7393925;19;20586;-79
2022/04/25 01:43:37;;;;;;;13.10;10.40;;;12.00;99.90;;;;;;7391944;19;20129;-79
2022/04/25 01:46:05;;;;;;;14.90;11.10;;;11.80;99.90;;;;;;7392078;19;20131;-76
2022/04/25 01:48:31;;;;;;;12.73;10.07;;;12.00;99.90;;;;;;7392958;19;20137;-78
2022/04/25 01:50:57;;;;;;;13.13;10.90;;;11.80;99.90;;;;;;7392069;19;20177;-80
2022/04/25 01:53:23;;;;;;;14.33;11.30;;;11.90;99.90;;;;;;7396302;19;20586;-77
2022/04/25 01:55:48;;;;;;;12.83;10.77;;;12.00;99.90;;;;;;7408269;19;20154;-79
2022/04/25 01:58:14;;;;;;;14.67;11.70;;;11.90;99.90;;;;;;7397911;19;20130;-78
2022/04/25 02:00:40;;;;;;;15.57;11.80;;;12.00;99.90;;;;;;7389838;19;20156;-80
2022/04/25 02:03:06;;;;;;;14.13;11.67;;;11.90;99.90;;;;;;7395156;19;20127;-77
2022/04/25 02:05:32;;;;;;;17.57;11.70;;;11.90;99.90;;;;;;7391197;19;20498;-79
2022/04/25 02:07:57;;;;;;;13.90;11.07;;;11.90;99.90;;;;;;7390884;19;20123;-80
2022/04/25 02:10:23;;;;;;;14.17;11.17;;;11.80;99.90;;;;;;7392401;19;20134;-79
2022/04/25 02:12:49;;;;;;;14.07;11.70;;;11.80;99.90;;;;;;7394655;19;20151;-80
2022/04/25 02:15:15;;;;;;;14.67;11.87;;;11.90;99.90;;;;;;7395228;19;20143;-78
2022/04/25 02:17:44;;;;;;;15.20;11.70;;;11.90;99.90;;;;;;7393792;19;20127;-77
2022/04/25 02:20:12;;;;;;;16.00;11.37;;;11.90;99.90;;;;;;7391923;19;20177;-80
2022/04/25 02:22:38;;;;;;;13.13;11.73;;;11.90;99.90;;;;;;7395937;19;20466;-79
2022/04/25 02:25:04;;;;;;;14.83;11.60;;;12.00;99.90;;;;;;7391269;19;20151;-80
2022/04/25 02:27:30;;;;;;;15.20;11.47;;;12.00;99.90;;;;;;7392192;19;20146;-80
2022/04/25 02:29:59;;;;;;;14.00;10.90;;;11.80;99.90;;;;;;7388744;19;20174;-78
2022/04/25 02:32:27;;;;;;;17.10;11.77;;;11.80;99.90;;;;;;7391236;19;20146;-78
2022/04/25 02:34:54;;;;;;;15.03;12.07;;;12.00;99.90;;;;;;7396325;19;20437;-79
2022/04/25 02:37:20;;;;;;;14.97;11.90;;;12.10;99.90;;;;;;7393758;19;20150;-78
2022/04/25 02:39:46;;;;;;;14.07;11.17;;;12.20;99.90;;;;;;7394585;19;20142;-80
2022/04/25 02:42:12;;;;;;;14.27;11.53;;;11.80;99.90;;;;;;7391099;19;20130;-77
2022/04/25 02:44:38;;;;;;;15.03;11.63;;;11.80;99.90;;;;;;7390721;19;20198;-77
2022/04/25 02:47:04;;;;;;;13.67;10.77;;;11.60;99.90;;;;;;7389729;19;20134;-77
2022/04/25 02:49:31;;;;;;;15.17;11.47;;;11.80;99.90;;;;;;7390267;19;20151;-77
2022/04/25 02:51:57;;;;;;;14.07;11.23;;;11.70;99.90;;;;;;7390119;19;20608;-77
2022/04/25 02:54:22;;;;;;;13.17;10.53;;;11.80;99.90;;;;;;7394058;19;20168;-80
2022/04/25 02:56:48;;;;;;;13.93;11.03;;;11.60;99.90;;;;;;7391681;19;20123;-77
2022/04/25 02:59:15;;;;;;;14.07;10.07;;;11.60;99.90;;;;;;7391607;19;20203;-77
2022/04/25 03:01:41;;;;;;;14.17;10.97;;;11.50;99.90;;;;;;7389917;19;20142;-76
2022/04/25 03:04:07;;;;;;;12.97;10.77;;;11.70;99.90;;;;;;7390022;19;20131;-79
2022/04/25 03:06:33;;;;;;;12.63;9.97;;;11.70;99.90;;;;;;7389425;19;20700;-78
2022/04/25 03:08:59;;;;;;;13.43;10.93;;;11.80;99.90;;;;;;7390006;19;20123;-77
2022/04/25 03:11:25;;;;;;;12.30;10.87;;;11.70;99.90;;;;;;7390055;19;20158;-79
2022/04/25 03:13:52;;;;;;;13.10;10.93;;;11.70;99.90;;;;;;7393995;19;20477;-78
2022/04/25 03:16:19;;;;;;;13.40;10.67;;;11.90;99.90;;;;;;7390652;19;20145;-79
2022/04/25 03:18:45;;;;;;;14.60;10.90;;;11.90;99.90;;;;;;7390289;19;20135;-80
2022/04/25 03:21:11;;;;;;;15.63;12.03;;;12.00;99.90;;;;;;7386940;19;20139;-77
2022/04/25 03:23:37;;;;;;;15.43;12.03;;;11.90;99.90;;;;;;7389794;19;20469;-77
2022/04/25 03:26:04;;;;;;;14.83;12.17;;;11.90;99.90;;;;;;7386465;19;20145;-78
2022/04/25 03:28:30;;;;;;;13.47;11.33;;;11.70;99.90;;;;;;7387609;19;20180;-77
2022/04/25 03:30:56;;;;;;;13.53;11.50;;;11.80;99.90;;;;;;7389614;19;20146;-78
2022/04/25 03:33:22;;;;;;;15.47;11.90;;;11.70;99.90;;;;;;7388955;19;20142;-80
2022/04/25 03:35:48;;;;;;;15.73;12.20;;;11.80;99.90;;;;;;7389510;19;20510;-79
2022/04/25 03:38:19;;;;;;;16.37;12.20;;;11.80;99.90;;;;;;7396005;19;20134;-80
2022/04/25 03:40:45;;;;;;;15.07;11.67;;;11.70;99.90;;;;;;7392719;19;20167;-79
2022/04/25 03:43:13;;;;;;;15.53;11.40;;;11.60;99.90;;;;;;7389892;19;20477;-77
2022/04/25 03:45:40;;;;;;;19.50;13.50;;;11.60;99.90;;;;;;7388943;19;20149;-79
2022/04/25 03:48:07;;;;;;;16.20;12.07;;;11.60;99.90;;;;;;7389054;19;20153;-80
2022/04/25 03:50:32;;;;;;;20.97;11.90;;;11.60;99.90;;;;;;7388571;19;20222;-81
2022/04/25 03:53:09;;;;;;;16.47;12.00;;;11.60;99.90;;;;;;7388203;19;20150;-81
2022/04/25 03:58:20;;;;;;;16.00;11.50;;;11.50;99.90;;;;;;7388331;19;20142;-80
2022/04/25 04:00:46;;;;;;;15.17;11.63;;;11.50;99.90;;;;;;7390944;19;20142;-79
2022/04/25 04:03:14;;;;;;;15.07;11.07;;;11.60;99.90;;;;;;7393817;19;20151;-80
2022/04/25 04:05:42;;;;;;;15.43;11.90;;;11.60;99.90;;;;;;7394388;19;20669;-77
2022/04/25 04:08:08;;;;;;;15.53;12.43;;;11.60;99.90;;;;;;7388705;19;20135;-79
2022/04/25 04:10:35;;;;;;;18.37;12.17;;;11.80;99.90;;;;;;7388362;19;20505;-78
2022/04/25 04:13:00;;;;;;;15.97;12.63;;;11.70;99.90;;;;;;7387644;19;20503;-80
2022/04/25 04:15:27;;;;;;;18.37;12.70;;;11.70;99.90;;;;;;7390968;19;20147;-78
2022/04/25 04:17:52;;;;;;;16.60;12.17;;;11.60;99.90;;;;;;7386067;19;20615;-79
2022/04/25 04:20:18;;;;;;;15.20;12.53;;;11.50;99.90;;;;;;7384920;19;20385;-78
2022/04/25 04:22:44;;;;;;;17.13;13.23;;;11.50;99.90;;;;;;7387293;19;20134;-80
2022/04/25 04:25:12;;;;;;;17.73;12.93;;;11.50;99.90;;;;;;7394803;19;20131;-80
2022/04/25 04:27:42;;;;;;;16.73;13.47;;;11.50;99.90;;;;;;7388948;19;20467;-79
2022/04/25 04:30:11;;;;;;;16.77;12.97;;;11.60;99.90;;;;;;7387086;19;20162;-78
2022/04/25 04:32:40;;;;;;;16.17;12.77;;;11.60;99.90;;;;;;7394958;19;20146;-78
2022/04/25 04:35:08;;;;;;;17.07;12.80;;;11.60;99.90;;;;;;7387863;19;20138;-78
2022/04/25 04:37:34;;;;;;;17.23;12.93;;;11.50;99.90;;;;;;7394490;19;20141;-79
2022/04/25 04:42:46;;;;;;;17.97;13.20;;;11.50;99.90;;;;;;7397902;19;20138;-78
2022/04/25 04:45:12;;;;;;;16.83;13.13;;;11.50;99.90;;;;;;7400011;19;20210;-78
2022/04/25 04:47:39;;;;;;;15.43;12.20;;;11.60;99.90;;;;;;7396947;19;20163;-80
2022/04/25 04:50:15;;;;;;;17.13;12.93;;;11.70;99.90;;;;;;7397739;19;20138;-79
2022/04/25 04:52:46;;;;;;;15.47;12.37;;;11.70;99.90;;;;;;7398222;19;20154;-79
2022/04/25 04:55:13;;;;;;;18.43;12.80;;;11.80;99.90;;;;;;7393729;19;20247;-79
2022/04/25 04:57:39;;;;;;;16.80;12.83;;;11.90;99.90;;;;;;7391657;19;21037;-79
2022/04/25 05:00:07;;;;;;;16.70;13.03;;;11.90;99.90;;;;;;7391101;19;20227;-78
2022/04/25 05:02:33;;;;;;;17.33;13.23;;;11.90;99.90;;;;;;7394708;19;20212;-77
2022/04/25 05:05:00;;;;;;;17.37;13.43;;;11.80;99.90;;;;;;7394797;19;20160;-79
2022/04/25 05:07:26;;;;;;;17.77;13.10;;;11.80;99.90;;;;;;7392690;19;20154;-79
2022/04/25 05:09:52;;;;;;;17.43;13.17;;;11.70;99.90;;;;;;7393090;19;20166;-79
2022/04/25 05:12:19;;;;;;;18.43;13.87;;;11.80;99.90;;;;;;7392602;19;20163;-79
2022/04/25 05:14:46;;;;;;;17.67;13.50;;;11.70;99.90;;;;;;7397199;19;20139;-78
2022/04/25 05:17:12;;;;;;;18.77;14.10;;;11.60;99.90;;;;;;7393122;19;20155;-79
2022/04/25 05:19:38;;;;;;;18.80;13.33;;;11.70;99.90;;;;;;7391073;19;20170;-79
2022/04/25 05:22:04;;;;;;;27.93;17.27;;;11.80;99.90;;;;;;7392636;19;20585;-79
2022/04/25 05:24:30;;;;;;;15.67;12.47;;;11.80;99.90;;;;;;7392953;19;20146;-78
2022/04/25 05:26:56;;;;;;;17.87;13.10;;;11.60;99.90;;;;;;7395054;19;20143;-75
2022/04/25 05:29:22;;;;;;;16.63;12.43;;;11.50;99.90;;;;;;7395754;19;20160;-79
2022/04/25 05:31:51;;;;;;;15.80;11.97;;;11.70;99.90;;;;;;7399434;19;20526;-80
2022/04/25 05:34:18;;;;;;;14.97;12.40;;;11.80;99.90;;;;;;7393040;19;20155;-80
2022/04/25 05:36:44;;;;;;;16.37;12.77;;;12.00;99.90;;;;;;7394132;19;20127;-79
2022/04/25 05:39:10;;;;;;;16.60;12.77;;;11.90;99.90;;;;;;7397274;19;20157;-79
2022/04/25 05:41:37;;;;;;;16.63;13.03;;;12.00;99.90;;;;;;7394259;19;20184;-79
2022/04/25 05:44:04;;;;;;;16.33;12.90;;;12.00;99.90;;;;;;7394837;19;20542;-80
2022/04/25 05:46:30;;;;;;;16.63;12.60;;;12.10;99.90;;;;;;7394691;19;20131;-78
2022/04/25 05:52:00;;;;;;;19.07;13.40;;;12.10;99.90;;;;;;7397588;19;20157;-76
2022/04/25 05:54:36;;;;;;;20.00;13.33;;;12.30;99.90;;;;;;7390655;19;20143;-76
2022/04/25 05:57:02;;;;;;;17.90;13.53;;;12.40;99.90;;;;;;7390243;19;20157;-77
2022/04/25 05:59:29;;;;;;;18.17;13.37;;;12.40;99.90;;;;;;7390664;19;20139;-77
2022/04/25 06:01:56;;;;;;;20.23;14.63;;;12.40;99.90;;;;;;7390336;19;20150;-74
2022/04/25 06:04:22;;;;;;;13.77;11.60;;;12.40;99.90;;;;;;7390225;19;20154;-75
2022/04/25 06:06:48;;;;;;;15.03;12.17;;;12.50;99.90;;;;;;7388759;19;20131;-74
2022/04/25 06:09:16;;;;;;;14.83;11.77;;;12.60;99.90;;;;;;7390793;19;20134;-74
2022/04/25 06:11:44;;;;;;;16.57;12.17;;;12.70;99.90;;;;;;7389275;19;20151;-74
2022/04/25 06:14:10;;;;;;;14.50;11.60;;;12.80;99.90;;;;;;7393024;19;20134;-76
2022/04/25 06:16:36;;;;;;;13.83;11.17;;;12.80;99.90;;;;;;7395007;19;20613;-76
2022/04/25 06:19:02;;;;;;;13.93;10.93;;;12.80;99.90;;;;;;7390064;19;20154;-74
2022/04/25 06:21:28;;;;;;;13.85;10.82;;;12.90;99.90;;;;;;7388873;19;20160;-73
2022/04/25 06:23:54;;;;;;;14.57;11.47;;;12.70;99.90;;;;;;7390052;19;20513;-75
2022/04/25 06:26:19;;;;;;;14.13;10.43;;;12.80;99.90;;;;;;7390224;19;20157;-74
2022/04/25 06:28:45;;;;;;;14.03;10.93;;;12.90;99.90;;;;;;7387004;19;20491;-75
2022/04/25 06:31:11;;;;;;;12.97;10.73;;;12.90;99.90;;;;;;7389189;19;20130;-75
2022/04/25 06:33:38;;;;;;;13.73;10.93;;;13.00;99.90;;;;;;7389148;19;20549;-76
2022/04/25 06:36:04;;;;;;;15.90;10.90;;;13.10;99.90;;;;;;7389968;19;20150;-75
2022/04/25 06:38:29;;;;;;;13.20;10.70;;;13.20;99.90;;;;;;7390745;19;20141;-74
2022/04/25 06:40:56;;;;;;;15.20;11.60;;;13.30;99.90;;;;;;7391118;19;20250;-76
2022/04/25 06:43:22;;;;;;;13.43;11.00;;;13.40;99.90;;;;;;7389142;19;20143;-75
2022/04/25 06:45:47;;;;;;;13.40;11.20;;;13.20;99.90;;;;;;7392355;19;20150;-75
2022/04/25 06:48:13;;;;;;;14.30;11.00;;;13.40;99.90;;;;;;7390274;19;20157;-75
2022/04/25 06:50:40;;;;;;;14.17;11.00;;;13.80;99.90;;;;;;7387548;19;20202;-76
2022/04/25 06:53:06;;;;;;;13.77;10.83;;;14.00;99.90;;;;;;7388692;19;20138;-76
2022/04/25 06:55:31;;;;;;;15.77;11.77;;;13.80;99.90;;;;;;7390243;19;20635;-75
2022/04/25 06:58:00;;;;;;;13.48;9.95;;;13.80;99.90;;;;;;7387828;19;20541;-76
2022/04/25 07:00:27;;;;;;;11.97;10.27;;;13.60;99.90;;;;;;7390153;19;20159;-75
2022/04/25 07:02:53;;;;;;;13.18;10.45;;;13.80;99.90;;;;;;7390842;19;20146;-75
2022/04/25 07:05:19;;;;;;;11.70;10.13;;;13.60;99.90;;;;;;7390315;19;20150;-75
2022/04/25 07:07:45;;;;;;;12.47;11.10;;;13.50;99.90;;;;;;7390472;19;20151;-76
2022/04/25 07:10:11;;;;;;;15.97;11.50;;;13.30;99.90;;;;;;7391648;19;20179;-76
2022/04/25 07:12:37;;;;;;;13.23;10.47;;;13.40;99.90;;;;;;7397164;19;20142;-75
2022/04/25 07:15:03;;;;;;;13.37;10.90;;;13.30;99.90;;;;;;7391348;19;20486;-74
2022/04/25 07:17:29;;;;;;;11.27;8.93;;;13.30;99.90;;;;;;7389971;19;20150;-76
2022/04/25 07:19:55;;;;;;;10.77;9.13;;;13.30;99.90;;;;;;7390200;19;20915;-77
2022/04/25 07:30:34;;;;;;;13.10;9.67;;;14.90;99.90;;;;;;7391473;19;20158;-76
2022/04/25 07:33:01;;;;;;;11.38;9.65;;;15.40;99.90;;;;;;7391534;19;20146;-78
2022/04/25 07:35:27;;;;;;;13.17;10.57;;;15.70;99.90;;;;;;7395239;19;20157;-77
2022/04/25 07:37:57;;;;;;;10.23;8.77;;;15.90;99.90;;;;;;7392731;19;20555;-74
2022/04/25 07:40:23;;;;;;;12.97;9.73;;;15.50;99.90;;;;;;7392972;19;20138;-76
2022/04/25 07:42:49;;;;;;;11.13;8.77;;;15.00;99.90;;;;;;7386961;19;20147;-78
2022/04/25 07:45:15;;;;;;;11.57;9.48;;;14.60;99.90;;;;;;7386925;19;20130;-76
2022/04/25 07:47:45;;;;;;;12.53;9.60;;;14.20;99.90;;;;;;7391283;19;20123;-80
2022/04/25 07:50:11;;;;;;;10.27;8.50;;;14.00;99.90;;;;;;7391527;19;20119;-75
2022/04/25 07:52:38;;;;;;;9.80;8.03;;;14.20;99.90;;;;;;7386800;19;20151;-74
2022/04/25 07:55:07;;;;;;;9.47;7.27;;;14.20;99.90;;;;;;7390079;19;20118;-78
2022/04/25 07:57:33;;;;;;;8.93;7.83;;;14.10;99.90;;;;;;7389445;19;20139;-77
2022/04/25 07:59:58;;;;;;;10.23;8.10;;;14.20;99.90;;;;;;7391318;19;20564;-79
2022/04/25 08:02:24;;;;;;;8.13;7.13;;;14.30;99.90;;;;;;7393113;19;20142;-77
2022/04/25 08:04:50;;;;;;;9.10;7.70;;;14.30;99.90;;;;;;7392472;19;20150;-77
2022/04/25 08:07:17;;;;;;;8.30;7.23;;;14.30;99.90;;;;;;7393673;19;20590;-75
2022/04/25 08:09:43;;;;;;;8.53;7.00;;;14.30;99.90;;;;;;7389424;19;20132;-73
2022/04/25 08:18:01;;;;;;;10.77;8.40;;;14.10;99.90;;;;;;7385436;19;20134;-75
2022/04/25 08:20:28;;;;;;;10.70;9.30;;;14.20;99.90;;;;;;7393202;19;20158;-78
2022/04/25 08:22:57;;;;;;;9.77;8.30;;;14.10;99.90;;;;;;7386925;19;20253;-74
2022/04/25 08:25:24;;;;;;;12.10;8.17;;;14.20;99.90;;;;;;7385347;19;20139;-77
2022/04/25 08:27:50;;;;;;;9.77;8.27;;;14.20;99.90;;;;;;7389575;19;20137;-76
2022/04/25 08:30:17;;;;;;;9.70;8.20;;;14.30;99.90;;;;;;7382864;19;20641;-78
2022/04/25 08:32:46;;;;;;;9.50;8.50;;;14.10;99.90;;;;;;7388963;19;20150;-73
2022/04/25 08:35:12;;;;;;;9.90;7.63;;;14.10;99.90;;;;;;7388379;19;20142;-78
2022/04/25 08:37:39;;;;;;;9.38;8.27;;;14.20;99.90;;;;;;7388386;19;20166;-78
2022/04/25 08:40:05;;;;;;;9.55;8.32;;;14.10;99.90;;;;;;7390059;19;20131;-75
2022/04/25 08:42:31;;;;;;;9.00;7.77;;;14.10;99.90;;;;;;7387813;19;20167;-80
2022/04/25 08:45:00;;;;;;;10.57;8.82;;;14.00;99.90;;;;;;7387777;19;20135;-79
2022/04/25 08:47:33;;;;;;;9.57;7.80;;;13.90;99.90;;;;;;7394118;19;20526;-79
2022/04/25 08:49:59;;;;;;;10.30;8.30;;;14.00;99.90;;;;;;7391976;19;20145;-75
2022/04/25 08:52:29;;;;;;;10.50;8.27;;;14.00;99.90;;;;;;7387329;19;20214;-74
2022/04/25 08:55:00;;;;;;;12.77;8.83;;;14.10;99.90;;;;;;7387095;19;20210;-79
2022/04/25 08:57:28;;;;;;;11.53;8.67;;;14.00;99.90;;;;;;7386784;19;20252;-78
2022/04/25 08:59:57;;;;;;;10.93;8.63;;;14.00;99.90;;;;;;7388746;19;20248;-79
2022/04/25 09:02:23;;;;;;;9.73;8.53;;;13.90;99.90;;;;;;7392367;19;20578;-80
2022/04/25 09:04:50;;;;;;;11.98;9.13;;;13.90;99.90;;;;;;7389200;19;20135;-79
2022/04/25 09:07:19;;;;;;;11.13;8.47;;;13.90;99.90;;;;;;7386284;19;20218;-74
2022/04/25 09:09:45;;;;;;;10.80;8.40;;;13.90;99.90;;;;;;7395994;19;20154;-74
2022/04/25 09:12:15;;;;;;;9.80;8.17;;;14.00;99.90;;;;;;7388096;19;20514;-73
2022/04/25 09:14:43;;;;;;;10.82;8.82;;;14.10;99.90;;;;;;7387607;19;20505;-78
2022/04/25 09:17:09;;;;;;;10.87;8.33;;;14.10;99.90;;;;;;7384708;19;20161;-79
2022/04/25 09:19:36;;;;;;;10.00;8.67;;;14.10;99.90;;;;;;7385629;19;20181;-77
2022/04/25 09:22:04;;;;;;;9.93;8.40;;;14.20;99.90;;;;;;7389338;19;20151;-74
2022/04/25 09:24:36;;;;;;;10.20;8.25;;;14.30;99.90;;;;;;7395896;19;20148;-78
2022/04/25 09:27:08;;;;;;;10.13;8.27;;;14.20;99.90;;;;;;7389716;19;20467;-81
2022/04/25 09:29:36;;;;;;;10.30;8.63;;;14.40;99.90;;;;;;7396654;19;20330;-76
2022/04/25 09:32:03;;;;;;;11.00;8.17;;;14.40;99.90;;;;;;7398595;19;20202;-76
2022/04/25 09:37:14;;;;;;;10.00;8.33;;;14.50;99.90;;;;;;7393736;19;20171;-77
2022/04/25 09:39:40;;;;;;;10.23;8.70;;;14.50;99.90;;;;;;7392931;19;20158;-78
2022/04/25 09:42:08;;;;;;;9.82;8.13;;;14.50;99.90;;;;;;7395166;19;20167;-75
2022/04/25 09:44:54;;;;;;;9.20;7.10;;;14.60;99.90;;;;;;7395310;19;20552;-76
2022/04/25 09:47:29;;;;;;;10.57;8.00;;;14.50;99.90;;;;;;7394467;19;20135;-76
2022/04/25 09:50:09;;;;;;;12.52;7.90;;;14.60;99.90;;;;;;7395425;19;20142;-78
2022/04/25 09:52:58;;;;;;;9.82;7.75;;;14.80;99.90;;;;;;7397331;19;20161;-76
2022/04/25 09:55:26;;;;;;;17.92;14.93;;;15.10;99.90;;;;;;7391658;19;20773;-76
2022/04/25 09:57:52;;;;;;;12.25;10.63;;;15.20;99.90;;;;;;7390031;19;20725;-75
2022/04/25 10:00:36;;;;;;;9.57;7.93;;;15.50;99.90;;;;;;7386397;19;20150;-73
2022/04/25 10:03:03;;;;;;;10.93;8.30;;;15.70;99.90;;;;;;7392018;19;20160;-76
2022/04/25 10:05:45;;;;;;;12.50;9.20;;;15.50;99.90;;;;;;7395756;19;20558;-74
2022/04/25 10:08:16;;;;;;;10.93;8.80;;;15.40;99.90;;;;;;7390462;19;20165;-71
2022/04/25 10:10:49;;;;;;;9.43;8.35;;;15.30;99.90;;;;;;7387997;19;20142;-76
2022/04/25 10:13:16;;;;;;;9.07;7.80;;;15.20;99.90;;;;;;7391974;19;20143;-76
2022/04/25 10:15:43;;;;;;;10.15;7.88;;;15.10;99.90;;;;;;7396115;19;20131;-76
2022/04/25 10:18:09;;;;;;;11.02;8.43;;;15.00;99.90;;;;;;7388804;19;20218;-72
2022/04/25 10:20:37;;;;;;;10.50;8.80;;;15.00;99.90;;;;;;7387111;19;20174;-73
2022/04/25 10:23:04;;;;;;;11.25;8.70;;;15.00;99.90;;;;;;7388081;19;20168;-76
2022/04/25 10:25:31;;;;;;;11.60;8.60;;;15.10;99.90;;;;;;7389613;19;20134;-71
2022/04/25 10:28:02;;;;;;;10.50;8.63;;;15.10;99.90;;;;;;7390016;19;20482;-75
2022/04/25 10:30:36;;;;;;;8.65;7.75;;;15.10;99.90;;;;;;7401564;19;20458;-71
2022/04/25 10:33:21;;;;;;;10.15;8.07;;;15.30;99.90;;;;;;7392685;19;20123;-71
2022/04/25 10:35:51;;;;;;;10.73;8.80;;;15.50;99.90;;;;;;7394948;19;20130;-65
2022/04/25 10:38:47;;;;;;;9.23;8.07;;;15.50;99.90;;;;;;7389830;19;20131;-70
2022/04/25 10:44:17;;;;;;;10.25;8.23;;;15.50;99.90;;;;;;7389642;19;20162;-71
2022/04/25 10:47:05;;;;;;;10.75;8.73;;;15.40;99.90;;;;;;7391815;19;20135;-68
2022/04/25 10:49:35;;;;;;;9.20;8.27;;;15.40;99.90;;;;;;7391965;19;20478;-68
2022/04/25 10:52:02;;;;;;;8.88;7.97;;;15.60;99.90;;;;;;7390884;19;20146;-70
2022/04/25 10:54:49;;;;;;;9.55;7.88;;;15.50;99.90;;;;;;7390554;19;20539;-69
2022/04/25 10:57:17;;;;;;;10.63;7.70;;;15.50;99.90;;;;;;7394542;19;20147;-74
2022/04/25 10:59:43;;;;;;;9.77;8.00;;;15.60;99.90;;;;;;7392093;19;20135;-74
2022/04/25 11:02:26;;;;;;;10.43;8.55;;;15.70;99.90;;;;;;7389555;19;20176;-69
2022/04/25 11:05:39;;;;;;;13.57;8.10;;;15.70;99.90;;;;;;7390018;19;20147;-75
2022/04/25 11:08:21;;;;;;;10.20;8.55;;;15.60;99.90;;;;;;7387310;19;20150;-74
2022/04/25 11:10:56;;;;;;;8.77;7.70;;;15.50;99.90;;;;;;7391104;19;20193;-69
2022/04/25 11:13:26;;;;;;;11.10;7.53;;;15.40;99.90;;;;;;7387506;19;20145;-69
2022/04/25 11:15:56;;;;;;;9.40;7.80;;;15.50;99.90;;;;;;7386023;19;20130;-76
2022/04/25 11:21:29;;;;;;;9.20;7.95;;;15.70;99.90;;;;;;7385678;19;20618;-71
2022/04/25 11:23:55;;;;;;;8.43;7.47;;;15.70;99.90;;;;;;7387570;19;20130;-69
2022/04/25 11:26:20;;;;;;;11.07;8.37;;;15.70;99.90;;;;;;7386036;19;20363;-75
2022/04/25 11:28:55;;;;;;;10.10;6.97;;;15.60;99.90;;;;;;7385606;19;20962;-72
2022/04/25 11:31:25;;;;;;;9.05;8.13;;;15.80;99.90;;;;;;7385642;19;20410;-76
2022/04/25 11:33:55;;;;;;;9.52;7.38;;;15.90;99.90;;;;;;7390074;19;20605;-77
2022/04/25 11:36:22;;;;;;;10.40;7.57;;;16.00;99.90;;;;;;7393805;19;20792;-73
2022/04/25 11:41:47;;;;;;;9.73;8.67;;;15.90;99.90;;;;;;7386283;19;20388;-72
2022/04/25 11:44:13;;;;;;;9.68;8.07;;;15.80;99.90;;;;;;7386124;19;20395;-77
2022/04/25 11:46:39;;;;;;;8.90;7.43;;;15.80;99.90;;;;;;7387604;19;20142;-72
2022/04/25 11:49:06;;;;;;;8.82;7.75;;;15.80;99.90;;;;;;7387003;19;20146;-72
2022/04/25 11:51:38;;;;;;;9.90;6.72;;;15.80;99.90;;;;;;7389276;19;20135;-72
2022/04/25 11:54:08;;;;;;;9.90;7.30;;;15.80;99.90;;;;;;7385327;19;20222;-72
2022/04/25 11:56:39;;;;;;;8.88;7.55;;;15.60;99.90;;;;;;7387340;19;20154;-71
2022/04/25 11:59:08;;;;;;;9.27;7.97;;;15.50;99.90;;;;;;7386824;19;20137;-78
2022/04/25 12:01:40;;;;;;;10.32;8.93;;;15.40;99.90;;;;;;7386427;19;20407;-73
2022/04/25 12:04:35;;;;;;;10.37;9.20;;;15.30;99.90;;;;;;7388784;19;20383;-74
2022/04/25 12:07:03;;;;;;;12.02;9.65;;;15.30;99.90;;;;;;7384672;19;20434;-73
2022/04/25 12:15:38;;;;;;;14.95;10.60;;;14.90;99.90;;;;;;7394093;19;20170;-75
2022/04/25 12:18:26;;;;;;;13.18;10.63;;;14.70;99.90;;;;;;7386201;19;20131;-72
2022/04/25 12:21:06;;;;;;;12.43;9.93;;;14.50;99.90;;;;;;7387600;19;20183;-76
2022/04/25 12:23:41;;;;;;;13.27;10.13;;;14.50;99.90;;;;;;7388196;19;20146;-79
2022/04/25 12:26:22;;;;;;;12.35;9.77;;;14.40;99.90;;;;;;7385955;19;20567;-74
2022/04/25 12:29:00;;;;;;;12.15;9.65;;;14.40;99.90;;;;;;7389375;19;20236;-74
2022/04/25 12:31:29;;;;;;;14.55;12.02;;;14.50;99.90;;;;;;7384723;19;20134;-74
2022/04/25 12:34:03;;;;;;;13.43;10.60;;;14.50;99.90;;;;;;7385541;19;20138;-78
2022/04/25 12:36:29;;;;;;;11.23;10.02;;;14.50;99.90;;;;;;7386012;19;20149;-73
2022/04/25 12:39:02;;;;;;;11.30;9.70;;;14.70;99.90;;;;;;7386645;19;20158;-79
2022/04/25 12:41:33;;;;;;;12.00;9.90;;;14.70;99.90;;;;;;7387010;19;20139;-74
2022/04/25 12:44:20;;;;;;;11.40;8.88;;;14.70;99.90;;;;;;7385884;19;20245;-74
2022/04/25 12:46:49;;;;;;;11.35;9.32;;;14.70;99.90;;;;;;7383341;19;20489;-79
2022/04/25 12:49:20;;;;;;;12.50;9.70;;;14.70;99.90;;;;;;7385376;19;20154;-79
2022/04/25 12:51:55;;;;;;;10.70;9.50;;;14.90;99.90;;;;;;7384293;19;20814;-79
2022/04/25 12:54:31;;;;;;;11.93;9.57;;;15.00;99.90;;;;;;7384544;19;20158;-79
2022/04/25 12:57:16;;;;;;;10.68;9.07;;;15.00;99.90;;;;;;7389857;19;20186;-79
2022/04/25 12:59:48;;;;;;;11.20;9.23;;;15.00;99.90;;;;;;7396154;19;20161;-79
2022/04/25 13:02:17;;;;;;;10.57;8.50;;;14.90;99.90;;;;;;7404154;19;20158;-74
2022/04/25 13:04:51;;;;;;;11.70;9.40;;;14.80;99.90;;;;;;7395507;19;20131;-79
2022/04/25 13:07:19;;;;;;;12.90;9.85;;;14.80;99.90;;;;;;7390949;19;20725;-74
2022/04/25 13:09:45;;;;;;;12.88;9.98;;;14.70;99.90;;;;;;7391978;19;20127;-74
2022/04/25 13:12:16;;;;;;;12.57;10.13;;;14.70;99.90;;;;;;7390214;19;20150;-73
2022/04/25 13:14:42;;;;;;;10.85;9.13;;;14.80;99.90;;;;;;7392576;19;20131;-73
2022/04/25 13:17:08;;;;;;;10.63;9.23;;;14.80;99.90;;;;;;7394880;19;20139;-78
2022/04/25 13:19:34;;;;;;;12.10;9.93;;;14.80;99.90;;;;;;7390609;19;20155;-76
2022/04/25 13:22:00;;;;;;;10.20;8.97;;;14.70;99.90;;;;;;7393252;19;20139;-79
2022/04/25 13:24:26;;;;;;;9.63;8.57;;;14.40;99.90;;;;;;7398704;19;20637;-77